createdAt,value
2022-11-18T00:01:23.919Z,77.63
2022-11-18T00:03:52.531Z,78.01
2022-11-18T00:06:25.279Z,76.57
2022-11-18T00:08:54.650Z,76.44
2022-11-18T00:11:45.331Z,75.76
2022-11-18T00:14:21.037Z,75.43
2022-11-18T00:17:05.177Z,75.63
2022-11-18T00:19:40.105Z,75.69
2022-11-18T00:22:12.735Z,74.39
2022-11-18T00:24:40.167Z,74.06
2022-11-18T00:27:07.556Z,73.05
2022-11-18T00:29:34.918Z,71.39
2022-11-18T00:32:02.222Z,73.02
2022-11-18T00:34:29.556Z,72.64
2022-11-18T00:36:56.893Z,70.89
2022-11-18T00:39:24.437Z,73.63
2022-11-18T00:42:10.483Z,72.51
2022-11-18T00:44:37.845Z,71.21
2022-11-18T00:47:06.209Z,71.64
2022-11-18T00:49:33.800Z,71.50
2022-11-18T00:52:01.795Z,71.05
2022-11-18T00:54:29.232Z,71.47
2022-11-18T00:56:56.576Z,72.96
2022-11-18T00:59:23.922Z,71.64
2022-11-18T01:01:51.372Z,72.83
2022-11-18T01:04:18.785Z,72.48
2022-11-18T01:06:46.101Z,72.12
2022-11-18T01:09:13.448Z,71.76
2022-11-18T01:11:59.160Z,71.73
2022-11-18T01:14:27.195Z,71.16
2022-11-18T01:16:57.170Z,71.32
2022-11-18T01:19:26.146Z,72.25
2022-11-18T01:21:53.576Z,72.99
2022-11-18T01:24:20.844Z,72.38
2022-11-18T01:26:49.237Z,72.78
2022-11-18T01:29:17.844Z,72.77
2022-11-18T01:32:01.804Z,73.43
2022-11-18T01:34:32.701Z,72.55
2022-11-18T01:37:00.011Z,72.61
2022-11-18T01:39:27.647Z,73.50
2022-11-18T01:41:54.978Z,72.58
2022-11-18T01:45:10.120Z,73.96
2022-11-18T01:47:55.576Z,75.00
2022-11-18T01:50:24.393Z,71.81
2022-11-18T01:52:57.746Z,73.48
2022-11-18T01:55:33.331Z,72.59
2022-11-18T01:58:17.284Z,72.54
2022-11-18T02:00:44.720Z,71.39
2022-11-18T02:03:14.116Z,72.20
2022-11-18T02:05:43.954Z,72.40
2022-11-18T02:08:11.500Z,73.00
2022-11-18T02:10:38.794Z,72.59
2022-11-18T02:13:07.738Z,73.85
2022-11-18T02:16:03.888Z,73.76
2022-11-18T02:19:10.976Z,74.68
2022-11-18T02:22:18.575Z,75.10
2022-11-18T02:25:15.596Z,76.02
2022-11-18T02:28:26.123Z,76.33
2022-11-18T02:31:41.573Z,76.52
2022-11-18T02:34:41.355Z,77.11
2022-11-18T02:37:51.318Z,76.82
2022-11-18T02:40:57.775Z,78.21
2022-11-18T02:43:58.107Z,78.00
2022-11-18T02:46:33.181Z,78.61
2022-11-18T02:49:06.626Z,77.91
2022-11-18T02:51:35.507Z,78.30
2022-11-18T02:54:11.848Z,78.45
2022-11-18T02:56:39.211Z,78.70
2022-11-18T02:59:06.516Z,78.50
2022-11-18T03:01:37.656Z,77.99
2022-11-18T03:04:05.156Z,78.54
2022-11-18T03:06:49.784Z,79.47
2022-11-18T03:09:31.891Z,79.91
2022-11-18T03:12:46.646Z,80.60
2022-11-18T03:16:01.295Z,79.08
2022-11-18T03:19:18.862Z,80.09
2022-11-18T03:22:28.333Z,78.32
2022-11-18T03:25:29.570Z,78.28
2022-11-18T03:28:12.554Z,78.72
2022-11-18T03:31:21.482Z,78.41
2022-11-18T03:34:10.861Z,78.04
2022-11-18T03:36:52.213Z,76.97
2022-11-18T03:39:22.584Z,77.02
2022-11-18T03:42:28.706Z,77.69
2022-11-18T03:45:07.018Z,77.30
2022-11-18T03:47:45.599Z,76.86
2022-11-18T03:50:26.560Z,76.62
2022-11-18T03:52:55.192Z,76.50
2022-11-18T03:55:36.722Z,77.36
2022-11-18T03:58:42.805Z,76.95
2022-11-18T04:01:23.744Z,77.27
2022-11-18T04:03:51.152Z,76.96
2022-11-18T04:06:56.251Z,77.00
2022-11-18T04:09:40.039Z,78.29
2022-11-18T04:12:15.968Z,76.01
2022-11-18T04:14:46.564Z,76.66
2022-11-18T04:17:19.809Z,78.25
2022-11-18T04:19:47.830Z,78.35
2022-11-18T04:22:16.178Z,76.55
2022-11-18T04:24:43.452Z,76.80
2022-11-18T04:27:11.274Z,76.81
2022-11-18T04:29:38.594Z,77.15
2022-11-18T04:32:06.578Z,77.27
2022-11-18T04:34:33.937Z,76.36
2022-11-18T04:37:01.359Z,78.93
2022-11-18T04:39:29.122Z,78.15
2022-11-18T04:41:56.475Z,76.89
2022-11-18T04:44:30.253Z,77.82
2022-11-18T04:47:02.306Z,77.24
2022-11-18T04:49:30.752Z,76.76
2022-11-18T04:51:59.116Z,77.02
2022-11-18T04:54:28.021Z,77.21
2022-11-18T04:56:56.657Z,73.64
2022-11-18T04:59:30.088Z,74.34
2022-11-18T05:02:00.846Z,75.01
2022-11-18T05:04:33.357Z,75.15
2022-11-18T05:07:04.525Z,76.11
2022-11-18T05:09:32.578Z,76.31
2022-11-18T05:12:19.950Z,74.06
2022-11-18T05:14:50.369Z,74.52
2022-11-18T05:17:19.196Z,75.59
2022-11-18T05:19:46.514Z,76.73
2022-11-18T05:22:15.959Z,75.67
2022-11-18T05:24:43.378Z,76.87
2022-11-18T05:27:13.046Z,76.76
2022-11-18T05:29:40.349Z,78.69
2022-11-18T05:32:07.621Z,76.37
2022-11-18T05:34:35.031Z,77.44
2022-11-18T05:37:02.350Z,78.24
2022-11-18T05:39:29.694Z,77.85
2022-11-18T05:42:15.610Z,77.98
2022-11-18T05:44:43.014Z,78.20
2022-11-18T05:47:10.647Z,78.58
2022-11-18T05:49:37.969Z,77.96
2022-11-18T05:52:05.909Z,77.71
2022-11-18T05:54:33.444Z,77.82
2022-11-18T05:57:01.022Z,77.64
2022-11-18T05:59:28.438Z,77.88
2022-11-18T06:02:05.230Z,78.14
2022-11-18T06:05:03.682Z,78.01
2022-11-18T06:07:45.372Z,77.47
2022-11-18T06:10:25.344Z,78.76
2022-11-18T06:13:00.723Z,78.62
2022-11-18T06:15:37.894Z,77.92
2022-11-18T06:18:29.853Z,78.27
2022-11-18T06:21:05.404Z,77.67
2022-11-18T06:23:40.226Z,77.11
2022-11-18T06:26:09.510Z,78.27
2022-11-18T06:28:37.854Z,77.63
2022-11-18T06:31:05.279Z,77.96
2022-11-18T06:33:32.611Z,77.76
2022-11-18T06:36:00.024Z,77.44
2022-11-18T06:38:27.327Z,77.62
2022-11-18T06:40:58.369Z,77.36
2022-11-18T06:43:43.701Z,77.47
2022-11-18T06:46:37.008Z,77.21
2022-11-18T06:49:04.474Z,76.65
2022-11-18T06:51:32.803Z,76.02
2022-11-18T06:54:07.508Z,75.70
2022-11-18T06:56:37.984Z,75.28
2022-11-18T06:59:05.878Z,75.41
2022-11-18T07:01:38.799Z,75.37
2022-11-18T07:04:06.365Z,75.67
2022-11-18T07:06:36.407Z,75.33
2022-11-18T07:09:07.168Z,75.00
2022-11-18T07:11:35.321Z,74.90
2022-11-18T07:14:02.710Z,74.67
2022-11-18T07:16:30.357Z,74.77
2022-11-18T07:18:57.939Z,74.07
2022-11-18T07:21:29.837Z,75.13
2022-11-18T07:23:57.809Z,76.38
2022-11-18T07:26:25.378Z,73.06
2022-11-18T07:28:54.010Z,75.31
2022-11-18T07:31:21.708Z,74.65
2022-11-18T07:33:50.154Z,74.39
2022-11-18T07:36:32.312Z,75.08
2022-11-18T07:39:06.273Z,74.22
2022-11-18T07:41:34.506Z,73.48
2022-11-18T07:44:04.975Z,74.19
2022-11-18T07:46:37.176Z,73.81
2022-11-18T07:49:09.239Z,74.51
2022-11-18T07:51:40.458Z,74.70
2022-11-18T07:54:17.183Z,74.54
2022-11-18T07:56:44.914Z,73.95
2022-11-18T07:59:12.213Z,74.41
2022-11-18T08:01:39.608Z,73.46
2022-11-18T08:04:12.586Z,72.29
2022-11-18T08:06:40.806Z,72.74
2022-11-18T08:09:09.122Z,72.96
2022-11-18T08:11:37.066Z,73.18
2022-11-18T08:14:04.646Z,73.48
2022-11-18T08:16:32.022Z,72.53
2022-11-18T08:19:00.837Z,73.05
2022-11-18T08:21:28.613Z,72.14
2022-11-18T08:23:58.758Z,71.90
2022-11-18T08:26:27.821Z,72.35
2022-11-18T08:28:55.308Z,72.22
2022-11-18T08:31:30.572Z,71.84
2022-11-18T08:34:07.602Z,73.51
2022-11-18T08:36:38.397Z,71.98
2022-11-18T08:39:09.096Z,72.40
2022-11-18T08:41:44.085Z,71.35
2022-11-18T08:44:16.356Z,71.77
2022-11-18T08:46:46.871Z,72.22
2022-11-18T08:49:14.728Z,71.84
2022-11-18T08:51:42.133Z,72.03
2022-11-18T08:54:11.949Z,71.70
2022-11-18T08:56:40.197Z,72.35
2022-11-18T08:59:08.925Z,72.03
2022-11-18T09:01:42.034Z,71.67
2022-11-18T09:04:10.705Z,72.00
2022-11-18T09:06:40.197Z,71.38
2022-11-18T09:09:08.781Z,70.23
2022-11-18T09:11:39.446Z,70.08
2022-11-18T09:16:54.175Z,70.52
2022-11-18T09:22:09.824Z,70.11
2022-11-18T09:24:38.172Z,69.46
2022-11-18T09:27:12.174Z,70.29
2022-11-18T09:29:42.652Z,70.24
2022-11-18T09:32:10.038Z,69.74
2022-11-18T09:34:37.441Z,70.70
2022-11-18T09:37:07.365Z,69.92
2022-11-18T09:39:36.995Z,70.04
2022-11-18T09:43:10.937Z,70.93
2022-11-18T09:45:48.508Z,72.05
2022-11-18T09:48:46.140Z,72.13
2022-11-18T09:51:13.935Z,72.76
2022-11-18T09:53:45.877Z,72.67
2022-11-18T09:56:17.262Z,73.39
2022-11-18T09:58:45.886Z,73.64
2022-11-18T10:01:20.119Z,74.07
2022-11-18T10:03:48.018Z,74.45
2022-11-18T10:06:34.175Z,73.83
2022-11-18T10:09:41.176Z,72.87
2022-11-18T10:12:45.919Z,71.96
2022-11-18T10:15:43.665Z,71.22
2022-11-18T10:19:26.803Z,71.45
2022-11-18T10:22:55.788Z,70.07
2022-11-18T10:25:23.781Z,70.00
2022-11-18T10:27:53.100Z,69.87
2022-11-18T10:30:27.695Z,68.51
2022-11-18T10:33:26.546Z,68.30
2022-11-18T10:36:16.638Z,66.65
2022-11-18T10:38:49.720Z,66.16
2022-11-18T10:41:20.808Z,65.78
2022-11-18T10:43:49.019Z,65.57
2022-11-18T10:46:39.192Z,66.18
2022-11-18T10:49:09.427Z,65.67
2022-11-18T10:51:45.459Z,66.34
2022-11-18T10:54:23.798Z,66.07
2022-11-18T10:57:08.143Z,65.73
2022-11-18T10:59:57.629Z,65.75
2022-11-18T11:02:34.687Z,66.11
2022-11-18T11:05:22.467Z,65.76
2022-11-18T11:08:35.881Z,65.47
2022-11-18T11:11:04.487Z,64.90
2022-11-18T11:13:35.775Z,64.85
2022-11-18T11:16:06.606Z,65.11
2022-11-18T11:18:44.351Z,63.77
2022-11-18T11:21:22.960Z,64.43
2022-11-18T11:23:50.367Z,64.00
2022-11-18T11:30:25.301Z,65.21
2022-11-18T11:34:01.957Z,64.32
2022-11-18T11:37:45.579Z,64.23
2022-11-18T11:40:57.600Z,63.97
2022-11-18T11:44:39.709Z,62.43
2022-11-18T11:48:19.446Z,59.51
2022-11-18T11:51:15.112Z,61.24
2022-11-18T11:54:47.791Z,61.67
2022-11-18T11:57:53.738Z,61.99
2022-11-18T12:00:21.267Z,62.29
2022-11-18T12:03:52.011Z,61.75
2022-11-18T12:06:19.977Z,62.11
2022-11-18T12:09:39.311Z,60.44
2022-11-18T12:12:35.671Z,58.25
2022-11-18T12:16:24.576Z,56.03
2022-11-18T12:19:19.573Z,55.30
2022-11-18T12:21:47.661Z,55.02
2022-11-18T12:24:24.781Z,54.93
2022-11-18T12:26:53.045Z,56.84
2022-11-18T12:29:20.478Z,56.97
2022-11-18T12:31:58.083Z,57.09
2022-11-18T12:34:44.757Z,57.20
2022-11-18T12:37:24.064Z,57.24
2022-11-18T12:39:58.923Z,56.91
2022-11-18T12:43:05.902Z,57.29
2022-11-18T12:45:42.511Z,56.91
2022-11-18T12:48:42.543Z,57.39
2022-11-18T12:51:15.820Z,57.92
2022-11-18T12:53:50.211Z,57.99
2022-11-18T12:56:36.943Z,57.77
2022-11-18T12:59:05.412Z,57.48
2022-11-18T13:01:36.914Z,58.18
2022-11-18T13:04:22.272Z,58.48
2022-11-18T13:06:51.141Z,58.72
2022-11-18T13:09:26.057Z,58.41
2022-11-18T13:12:14.197Z,56.80
2022-11-18T13:15:07.027Z,57.09
2022-11-18T13:17:52.027Z,56.64
2022-11-18T13:20:37.701Z,56.69
2022-11-18T13:23:28.105Z,56.69
2022-11-18T13:26:31.679Z,57.18
2022-11-18T13:30:06.222Z,57.51
2022-11-18T13:32:33.682Z,57.20
2022-11-18T13:35:19.955Z,58.25
2022-11-18T13:38:01.857Z,58.86
2022-11-18T13:41:04.496Z,58.64
2022-11-18T13:43:33.290Z,58.49
2022-11-18T13:46:16.497Z,58.00
2022-11-18T13:48:58.050Z,57.67
2022-11-18T13:51:26.734Z,58.69
2022-11-18T13:53:54.255Z,58.80
2022-11-18T13:56:34.940Z,58.64
2022-11-18T13:59:20.609Z,59.27
2022-11-18T14:02:00.048Z,58.38
2022-11-18T14:04:31.558Z,58.80
2022-11-18T14:07:33.713Z,58.77
2022-11-18T14:10:15.446Z,57.46
2022-11-18T14:12:42.851Z,57.84
2022-11-18T14:15:43.260Z,57.29
2022-11-18T14:18:46.460Z,57.37
2022-11-18T14:21:14.175Z,57.10
2022-11-18T14:23:44.375Z,57.13
2022-11-18T14:26:12.934Z,57.95
2022-11-18T14:28:40.335Z,56.71
2022-11-18T14:31:30.874Z,56.79
2022-11-18T14:34:27.007Z,56.13
2022-11-18T14:36:56.780Z,57.03
2022-11-18T14:39:32.182Z,56.71
2022-11-18T14:42:00.286Z,56.64
2022-11-18T14:44:28.730Z,57.07
2022-11-18T14:47:06.399Z,57.83
2022-11-18T14:49:34.040Z,57.36
2022-11-18T14:52:02.782Z,57.93
2022-11-18T14:54:30.810Z,58.07
2022-11-18T14:57:04.058Z,57.90
2022-11-18T14:59:32.364Z,58.52
2022-11-18T15:02:01.010Z,56.82
2022-11-18T15:04:28.455Z,56.58
2022-11-18T15:06:56.538Z,56.77
2022-11-18T15:09:23.851Z,56.64
2022-11-18T15:11:51.348Z,56.98
2022-11-18T15:14:18.816Z,57.63
2022-11-18T15:16:46.330Z,57.27
2022-11-18T15:19:16.551Z,57.27
2022-11-18T15:21:45.553Z,57.78
2022-11-18T15:24:13.527Z,57.94
2022-11-18T15:26:46.323Z,58.29
2022-11-18T15:29:24.754Z,58.05
2022-11-18T15:31:52.455Z,58.94
2022-11-18T15:34:21.577Z,58.81
2022-11-18T15:36:49.816Z,58.41
2022-11-18T15:39:17.168Z,58.94
2022-11-18T15:41:44.734Z,59.00
2022-11-18T15:44:12.609Z,58.61
2022-11-18T15:46:40.558Z,58.99
2022-11-18T15:49:13.814Z,58.74
2022-11-18T15:51:42.391Z,58.89
2022-11-18T15:54:09.919Z,58.77
2022-11-18T15:56:38.382Z,58.99
2022-11-18T15:59:11.801Z,58.89
2022-11-18T16:01:49.505Z,59.06
2022-11-18T16:04:19.386Z,58.96
2022-11-18T16:06:47.719Z,59.10
2022-11-18T16:09:17.368Z,59.19
2022-11-18T16:12:03.915Z,59.21
2022-11-18T16:14:31.267Z,60.27
2022-11-18T16:16:58.585Z,59.55
2022-11-18T16:19:27.229Z,59.53
2022-11-18T16:21:57.286Z,59.12
2022-11-18T16:24:29.227Z,59.28
2022-11-18T16:26:57.299Z,59.33
2022-11-18T16:29:25.348Z,59.66
2022-11-18T16:31:54.439Z,59.61
2022-11-18T16:34:28.253Z,60.92
2022-11-18T16:37:02.163Z,59.26
2022-11-18T16:39:29.984Z,59.22
2022-11-18T16:42:08.055Z,59.35
2022-11-18T16:44:37.744Z,58.70
2022-11-18T16:47:13.742Z,59.07
2022-11-18T16:49:42.233Z,58.53
2022-11-18T16:52:09.604Z,58.52
2022-11-18T16:54:44.265Z,59.72
2022-11-18T16:57:12.213Z,58.97
2022-11-18T16:59:39.469Z,59.29
2022-11-18T17:02:07.329Z,59.68
2022-11-18T17:04:37.162Z,60.38
2022-11-18T17:07:05.436Z,60.51
2022-11-18T17:09:33.154Z,60.51
2022-11-18T17:12:00.484Z,60.62
2022-11-18T17:14:28.911Z,61.36
2022-11-18T17:16:56.679Z,60.82
2022-11-18T17:19:24.869Z,61.31
2022-11-18T17:21:52.972Z,61.22
2022-11-18T17:24:23.904Z,61.11
2022-11-18T17:26:52.514Z,60.79
2022-11-18T17:29:20.996Z,61.18
2022-11-18T17:31:48.966Z,60.89
2022-11-18T17:34:17.016Z,60.83
2022-11-18T17:36:44.568Z,60.13
2022-11-18T17:39:13.395Z,60.20
2022-11-18T17:41:59.331Z,59.83
2022-11-18T17:44:29.189Z,59.28
2022-11-18T17:46:56.848Z,59.96
2022-11-18T17:49:24.768Z,60.02
2022-11-18T17:51:52.349Z,59.74
2022-11-18T17:54:21.013Z,59.45
2022-11-18T17:56:49.945Z,59.99
2022-11-18T17:59:18.419Z,60.69
2022-11-18T18:01:46.421Z,60.12
2022-11-18T18:04:15.382Z,60.58
2022-11-18T18:06:42.827Z,60.68
2022-11-18T18:09:10.244Z,59.91
2022-11-18T18:11:37.501Z,59.50
2022-11-18T18:14:22.451Z,59.03
2022-11-18T18:16:51.229Z,60.89
2022-11-18T18:19:22.586Z,59.81
2022-11-18T18:21:50.615Z,59.59
2022-11-18T18:24:20.344Z,60.41
2022-11-18T18:26:51.702Z,60.17
2022-11-18T18:29:19.037Z,60.02
2022-11-18T18:31:46.332Z,59.57
2022-11-18T18:34:13.643Z,59.43
2022-11-18T18:36:40.899Z,59.40
2022-11-18T18:39:08.155Z,59.42
2022-11-18T18:41:35.639Z,59.64
2022-11-18T18:44:02.918Z,59.96
2022-11-18T18:46:33.383Z,59.17
2022-11-18T18:49:20.618Z,59.50
2022-11-18T18:51:51.265Z,59.92
2022-11-18T18:54:20.817Z,60.56
2022-11-18T18:56:49.401Z,61.12
2022-11-18T18:59:16.671Z,60.44
2022-11-18T19:01:44.059Z,61.01
2022-11-18T19:04:13.650Z,61.28
2022-11-18T19:07:01.145Z,62.18
2022-11-18T19:09:28.879Z,61.68
2022-11-18T19:12:14.953Z,62.87
2022-11-18T19:14:42.319Z,63.65
2022-11-18T19:17:11.594Z,62.98
2022-11-18T19:20:00.830Z,63.41
2022-11-18T19:22:33.354Z,62.71
2022-11-18T19:27:48.451Z,62.89
2022-11-18T19:30:16.988Z,62.24
2022-11-18T19:32:44.283Z,61.99
2022-11-18T19:35:11.789Z,61.99
2022-11-18T19:37:39.130Z,63.39
2022-11-18T19:40:10.542Z,63.36
2022-11-18T19:42:39.392Z,62.88
2022-11-18T19:45:09.555Z,62.24
2022-11-18T19:47:37.822Z,62.53
2022-11-18T19:50:08.042Z,62.63
2022-11-18T19:52:35.331Z,63.19
2022-11-18T19:55:02.657Z,63.03
2022-11-18T19:57:31.191Z,63.11
2022-11-18T19:59:58.495Z,63.64
2022-11-18T20:02:25.793Z,64.11
2022-11-18T20:05:11.712Z,64.37
2022-11-18T20:07:39.058Z,64.63
2022-11-18T20:10:09.243Z,65.08
2022-11-18T20:12:37.277Z,65.70
2022-11-18T20:15:05.449Z,66.43
2022-11-18T20:17:32.811Z,66.85
2022-11-18T20:20:00.104Z,67.07
2022-11-18T20:22:27.408Z,67.29
2022-11-18T20:24:54.698Z,68.07
2022-11-18T20:27:21.983Z,69.20
2022-11-18T20:29:49.248Z,69.83
2022-11-18T20:32:18.306Z,71.03
2022-11-18T20:34:47.070Z,70.29
2022-11-18T20:37:15.030Z,70.82
2022-11-18T20:39:42.325Z,70.00
2022-11-18T20:42:27.938Z,71.52
2022-11-18T20:44:55.246Z,72.12
2022-11-18T20:47:22.524Z,72.95
2022-11-18T20:49:49.811Z,72.41
2022-11-18T20:52:17.084Z,71.94
2022-11-18T20:54:45.666Z,71.56
2022-11-18T20:57:12.959Z,72.10
2022-11-18T20:59:40.210Z,71.42
2022-11-18T21:02:08.668Z,70.71
2022-11-18T21:04:35.970Z,69.71
2022-11-18T21:07:03.302Z,69.77
2022-11-18T21:09:32.825Z,70.89
2022-11-18T21:12:00.810Z,70.39
2022-11-18T21:14:28.309Z,70.12
2022-11-18T21:17:01.891Z,70.67
2022-11-18T21:19:32.841Z,70.74
2022-11-18T21:22:00.350Z,70.63
2022-11-18T21:24:31.954Z,70.92
2022-11-18T21:27:01.846Z,71.60
2022-11-18T21:29:32.513Z,70.71
2022-11-18T21:32:01.453Z,70.51
2022-11-18T21:34:30.233Z,70.49
2022-11-18T21:36:58.196Z,70.16
2022-11-18T21:39:25.930Z,70.00
2022-11-18T21:41:56.586Z,70.40
2022-11-18T21:44:28.061Z,69.94
2022-11-18T21:46:56.403Z,69.19
2022-11-18T21:49:23.958Z,69.65
2022-11-18T21:51:51.341Z,69.15
2022-11-18T21:54:18.716Z,69.23
2022-11-18T21:56:46.047Z,69.37
2022-11-18T21:59:13.549Z,69.25
2022-11-18T22:01:40.816Z,69.36
2022-11-18T22:04:08.175Z,69.46
2022-11-18T22:06:36.428Z,69.33
2022-11-18T22:09:06.047Z,69.22
2022-11-18T22:11:33.438Z,69.19
2022-11-18T22:14:01.933Z,68.45
2022-11-18T22:16:29.326Z,69.00
2022-11-18T22:19:01.424Z,68.68
2022-11-18T22:21:31.155Z,69.12
2022-11-18T22:24:00.875Z,68.81
2022-11-18T22:26:29.463Z,68.92
2022-11-18T22:28:58.493Z,67.68
2022-11-18T22:31:28.499Z,68.78
2022-11-18T22:33:57.050Z,69.63
2022-11-18T22:36:27.513Z,67.85
2022-11-18T22:38:55.424Z,68.32
2022-11-18T22:41:48.135Z,68.39
2022-11-18T22:44:17.844Z,68.08
2022-11-18T22:46:46.607Z,68.23
2022-11-18T22:49:14.183Z,69.89
2022-11-18T22:51:41.510Z,69.39
2022-11-18T22:54:37.600Z,69.56
2022-11-18T22:56:57.402Z,70.37
2022-11-18T22:59:25.026Z,69.81
2022-11-18T23:01:52.908Z,69.51
2022-11-18T23:04:20.441Z,71.02
2022-11-18T23:06:49.628Z,69.64
2022-11-18T23:09:17.757Z,69.41
2022-11-18T23:12:04.163Z,69.00
2022-11-18T23:14:31.698Z,69.61
2022-11-18T23:16:59.594Z,70.05
2022-11-18T23:19:26.880Z,69.05
2022-11-18T23:21:54.145Z,69.94
2022-11-18T23:24:21.489Z,69.94
2022-11-18T23:26:48.801Z,69.55
2022-11-18T23:29:17.093Z,68.88
2022-11-18T23:31:45.532Z,68.49
2022-11-18T23:34:16.475Z,68.82
2022-11-18T23:36:44.063Z,69.95
2022-11-18T23:39:11.818Z,71.20
2022-11-18T23:41:40.189Z,71.71
2022-11-18T23:44:07.583Z,72.81
2022-11-18T23:46:35.287Z,72.29
2022-11-18T23:49:05.093Z,71.66
2022-11-18T23:51:32.367Z,72.19
2022-11-18T23:53:59.670Z,72.70
2022-11-18T23:56:28.056Z,72.37
2022-11-18T23:58:56.965Z,73.27
